createdAt,value
2017-07-08T00:00:31.725Z,100485.66
2017-07-08T00:02:59.143Z,100482.81
2017-07-08T00:05:26.569Z,100482.41
2017-07-08T00:08:00.341Z,100483.55
2017-07-08T00:10:27.763Z,100484.56
2017-07-08T00:12:55.190Z,100483.75
2017-07-08T00:15:22.613Z,100486.98
2017-07-08T00:17:50.033Z,100481.98
2017-07-08T00:20:17.483Z,100483.98
2017-07-08T00:22:44.913Z,100485.05
2017-07-08T00:25:12.593Z,100477.87
2017-07-08T00:27:40.006Z,100481.78
2017-07-08T00:30:07.432Z,100479.61
2017-07-08T00:32:34.881Z,100474.84
2017-07-08T00:35:02.340Z,100474.98
2017-07-08T00:37:29.798Z,100475.91
2017-07-08T00:39:57.218Z,100473.05
2017-07-08T00:42:24.633Z,100472.34
2017-07-08T00:44:52.095Z,100476.97
2017-07-08T00:47:19.511Z,100476.81
2017-07-08T00:49:46.946Z,100474.50
2017-07-08T00:52:14.366Z,100475.16
2017-07-08T00:54:41.789Z,100474.48
2017-07-08T00:57:09.228Z,100465.56
2017-07-08T00:59:37.099Z,100463.91
2017-07-08T01:02:04.554Z,100467.45
2017-07-08T01:04:31.985Z,100464.22
2017-07-08T01:06:59.398Z,100464.89
2017-07-08T01:09:26.842Z,100459.08
2017-07-08T01:11:54.268Z,100458.81
2017-07-08T01:14:21.709Z,100460.97
2017-07-08T01:16:49.119Z,100458.11
2017-07-08T01:19:16.537Z,100460.11
2017-07-08T01:21:43.979Z,100464.30
2017-07-08T01:24:11.389Z,100460.99
2017-07-08T01:26:38.859Z,100459.89
2017-07-08T01:29:06.276Z,100458.13
2017-07-08T01:31:33.680Z,100466.94
2017-07-08T01:34:01.110Z,100468.42
2017-07-08T01:36:28.545Z,100467.48
2017-07-08T01:38:55.972Z,100460.17
2017-07-08T01:41:23.389Z,100461.11
2017-07-08T01:43:50.794Z,100456.37
2017-07-08T01:46:18.233Z,100452.83
2017-07-08T01:48:45.659Z,100456.48
2017-07-08T01:51:13.095Z,100456.06
2017-07-08T01:53:40.520Z,100456.19
2017-07-08T01:56:07.942Z,100449.94
2017-07-08T01:58:35.366Z,100446.16
2017-07-08T02:01:02.810Z,100453.72
2017-07-08T02:03:30.248Z,100445.17
2017-07-08T02:05:57.710Z,100447.86
2017-07-08T02:08:33.049Z,100456.05
2017-07-08T02:11:00.498Z,100450.08
2017-07-08T02:13:27.935Z,100454.89
2017-07-08T02:15:55.352Z,100459.02
2017-07-08T02:18:22.766Z,100456.12
2017-07-08T02:20:50.294Z,100451.91
2017-07-08T02:23:17.713Z,100445.44
2017-07-08T02:25:45.134Z,100448.38
2017-07-08T02:28:12.555Z,100446.89
2017-07-08T02:30:39.983Z,100447.14
2017-07-08T02:33:07.455Z,100447.11
2017-07-08T02:35:34.872Z,100456.19
2017-07-08T02:38:02.310Z,100456.29
2017-07-08T02:40:29.765Z,100454.08
2017-07-08T02:42:57.190Z,100455.64
2017-07-08T02:45:24.625Z,100449.00
2017-07-08T02:47:52.038Z,100462.12
2017-07-08T02:50:19.454Z,100453.44
2017-07-08T02:52:46.900Z,100457.48
2017-07-08T02:55:14.334Z,100448.41
2017-07-08T02:57:41.779Z,100446.13
2017-07-08T03:00:09.194Z,100449.48
2017-07-08T03:02:36.599Z,100449.70
2017-07-08T03:05:04.041Z,100447.90
2017-07-08T03:07:31.454Z,100439.28
2017-07-08T03:09:58.902Z,100443.95
2017-07-08T03:12:26.330Z,100445.20
2017-07-08T03:14:53.764Z,100445.30
2017-07-08T03:17:21.201Z,100442.33
2017-07-08T03:19:48.623Z,100447.23
2017-07-08T03:22:16.100Z,100439.94
2017-07-08T03:24:43.562Z,100439.83
2017-07-08T03:27:10.988Z,100438.77
2017-07-08T03:29:38.454Z,100440.01
2017-07-08T03:32:05.894Z,100435.86
2017-07-08T03:34:33.361Z,100435.37
2017-07-08T03:37:00.770Z,100435.64
2017-07-08T03:39:28.186Z,100438.34
2017-07-08T03:42:05.532Z,100436.27
2017-07-08T03:44:32.946Z,100438.47
2017-07-08T03:47:00.395Z,100435.52
2017-07-08T03:49:27.823Z,100435.14
2017-07-08T03:51:55.237Z,100437.73
2017-07-08T03:54:22.702Z,100437.80
2017-07-08T03:56:50.127Z,100444.72
2017-07-08T03:59:17.542Z,100439.48
2017-07-08T04:01:44.973Z,100440.30
2017-07-08T04:04:12.430Z,100445.73
2017-07-08T04:06:39.890Z,100439.53
2017-07-08T04:09:07.317Z,100448.52
2017-07-08T04:11:34.730Z,100452.45
2017-07-08T04:14:02.241Z,100451.41
2017-07-08T04:16:29.684Z,100452.00
2017-07-08T04:18:57.121Z,100457.20
2017-07-08T04:21:24.585Z,100455.73
2017-07-08T04:23:51.989Z,100448.47
2017-07-08T04:26:19.445Z,100448.89
2017-07-08T04:28:46.910Z,100446.48
2017-07-08T04:31:14.322Z,100446.23
2017-07-08T04:33:41.746Z,100449.07
2017-07-08T04:36:09.161Z,100450.40
2017-07-08T04:38:36.616Z,100449.35
2017-07-08T04:41:04.021Z,100451.50
2017-07-08T04:43:31.442Z,100455.28
2017-07-08T04:45:58.878Z,100462.45
2017-07-08T04:48:26.429Z,100458.97
2017-07-08T04:50:53.868Z,100456.92
2017-07-08T04:53:21.374Z,100459.81
2017-07-08T04:55:48.799Z,100460.80
2017-07-08T04:58:16.240Z,100456.09
2017-07-08T05:00:43.711Z,100461.93
2017-07-08T05:03:11.158Z,100460.84
2017-07-08T05:05:38.618Z,100457.34
2017-07-08T05:08:06.030Z,100457.23
2017-07-08T05:10:33.464Z,100459.44
2017-07-08T05:13:00.917Z,100459.31
2017-07-08T05:15:28.348Z,100461.09
2017-07-08T05:17:55.803Z,100463.97
2017-07-08T05:20:23.238Z,100455.84
2017-07-08T05:22:50.690Z,100461.67
2017-07-08T05:25:18.112Z,100457.36
2017-07-08T05:27:45.875Z,100451.52
2017-07-08T05:30:13.323Z,100451.43
2017-07-08T05:32:40.782Z,100454.16
2017-07-08T05:35:08.963Z,100449.00
2017-07-08T05:37:37.218Z,100454.30
2017-07-08T05:40:04.689Z,100449.69
2017-07-08T05:42:32.124Z,100454.03
2017-07-08T05:44:59.546Z,100454.30
2017-07-08T05:47:27.044Z,100463.65
2017-07-08T05:49:54.507Z,100461.34
2017-07-08T05:52:21.956Z,100464.31
2017-07-08T05:54:49.386Z,100459.56
2017-07-08T05:57:16.822Z,100457.81
2017-07-08T05:59:44.249Z,100459.83
2017-07-08T06:02:11.677Z,100462.95
2017-07-08T06:04:39.109Z,100459.53
2017-07-08T06:07:06.517Z,100460.77
2017-07-08T06:09:33.934Z,100470.75
2017-07-08T06:12:01.414Z,100469.61
2017-07-08T06:14:28.857Z,100473.51
2017-07-08T06:16:57.026Z,100472.74
2017-07-08T06:19:24.458Z,100478.61
2017-07-08T06:21:51.889Z,100470.20
2017-07-08T06:24:19.309Z,100468.04
2017-07-08T06:26:46.726Z,100480.91
2017-07-08T06:29:14.156Z,100484.52
2017-07-08T06:31:41.576Z,100490.86
2017-07-08T06:34:09.009Z,100493.58
2017-07-08T06:36:36.443Z,100497.20
2017-07-08T06:39:03.862Z,100501.39
2017-07-08T06:41:31.286Z,100502.45
2017-07-08T06:43:58.698Z,100497.96
2017-07-08T06:46:26.113Z,100494.41
2017-07-08T06:48:54.397Z,100500.79
2017-07-08T06:51:21.850Z,100494.72
2017-07-08T06:53:49.282Z,100496.19
2017-07-08T06:56:16.698Z,100498.98
2017-07-08T06:58:44.115Z,100497.09
2017-07-08T07:01:11.570Z,100491.95
2017-07-08T07:03:39.057Z,100481.63
2017-07-08T07:06:06.504Z,100481.89
2017-07-08T07:08:33.928Z,100480.16
2017-07-08T07:11:01.350Z,100487.05
2017-07-08T07:13:28.792Z,100485.32
2017-07-08T07:15:56.235Z,100492.38
2017-07-08T07:18:23.671Z,100483.88
2017-07-08T07:20:51.189Z,100492.55
2017-07-08T07:23:18.601Z,100489.95
2017-07-08T07:25:46.027Z,100492.25
2017-07-08T07:28:13.449Z,100487.58
2017-07-08T07:30:40.916Z,100484.78
2017-07-08T07:33:08.336Z,100497.16
2017-07-08T07:35:35.745Z,100503.28
2017-07-08T07:38:03.169Z,100507.42
2017-07-08T07:40:30.582Z,100510.03
2017-07-08T07:42:58.026Z,100509.09
2017-07-08T07:45:25.442Z,100505.53
2017-07-08T07:47:52.866Z,100513.25
2017-07-08T07:50:20.285Z,100511.69
2017-07-08T07:52:47.709Z,100520.88
2017-07-08T07:55:15.139Z,100517.20
2017-07-08T07:57:42.555Z,100517.67
2017-07-08T08:00:09.974Z,100513.84
2017-07-08T08:02:37.402Z,100517.34
2017-07-08T08:05:04.822Z,100520.62
2017-07-08T08:07:32.277Z,100524.02
2017-07-08T08:09:59.698Z,100532.55
2017-07-08T08:12:27.110Z,100525.52
2017-07-08T08:15:00.429Z,100522.20
2017-07-08T08:17:27.837Z,100523.52
2017-07-08T08:19:55.266Z,100521.13
2017-07-08T08:22:22.703Z,100522.14
2017-07-08T08:24:50.118Z,100514.19
2017-07-08T08:27:17.539Z,100516.89
2017-07-08T08:29:44.954Z,100510.16
2017-07-08T08:32:12.382Z,100509.45
2017-07-08T08:34:39.798Z,100501.31
2017-07-08T08:37:07.215Z,100509.65
2017-07-08T08:39:34.656Z,100506.33
2017-07-08T08:42:07.983Z,100516.72
2017-07-08T08:44:35.418Z,100508.84
2017-07-08T08:47:02.833Z,100511.04
2017-07-08T08:49:30.253Z,100511.66
2017-07-08T08:51:57.721Z,100509.39
2017-07-08T08:54:25.134Z,100504.55
2017-07-08T08:56:52.680Z,100499.38
2017-07-08T08:59:20.698Z,100501.58
2017-07-08T09:01:48.111Z,100505.48
2017-07-08T09:04:15.543Z,100502.82
2017-07-08T09:06:43.706Z,100502.24
2017-07-08T09:09:11.192Z,100500.48
2017-07-08T09:11:38.610Z,100510.88
2017-07-08T09:14:06.022Z,100512.95
2017-07-08T09:16:33.453Z,100514.89
2017-07-08T09:19:01.434Z,100512.20
2017-07-08T09:21:28.859Z,100512.86
2017-07-08T09:23:57.211Z,100507.56
2017-07-08T09:26:24.709Z,100504.57
2017-07-08T09:28:52.242Z,100498.98
2017-07-08T09:31:19.673Z,100498.77
2017-07-08T09:33:47.111Z,100502.27
2017-07-08T09:36:14.537Z,100505.12
2017-07-08T09:38:41.961Z,100507.64
2017-07-08T09:41:09.382Z,100502.65
2017-07-08T09:43:37.777Z,100502.06
2017-07-08T09:46:05.190Z,100494.75
2017-07-08T09:48:32.609Z,100492.64
2017-07-08T09:51:00.038Z,100496.84
2017-07-08T09:53:27.450Z,100501.92
2017-07-08T09:55:56.115Z,100503.70
2017-07-08T09:58:23.524Z,100500.55
2017-07-08T10:00:50.939Z,100500.91
2017-07-08T10:03:18.362Z,100497.89
2017-07-08T10:05:45.789Z,100496.40
2017-07-08T10:08:13.221Z,100500.72
2017-07-08T10:10:41.007Z,100497.69
2017-07-08T10:13:08.431Z,100494.40
2017-07-08T10:15:35.891Z,100498.56
2017-07-08T10:18:03.300Z,100505.84
2017-07-08T10:20:30.743Z,100499.25
2017-07-08T10:22:58.157Z,100498.48
2017-07-08T10:25:25.591Z,100505.30
2017-07-08T10:27:53.030Z,100496.79
2017-07-08T10:30:20.450Z,100506.98
2017-07-08T10:32:47.889Z,100500.06
2017-07-08T10:35:15.327Z,100502.83
2017-07-08T10:37:42.850Z,100493.00
2017-07-08T10:40:10.308Z,100499.08
2017-07-08T10:42:37.718Z,100495.81
2017-07-08T10:45:05.163Z,100492.50
2017-07-08T10:47:32.579Z,100483.63
2017-07-08T10:50:00.001Z,100489.55
2017-07-08T10:52:27.426Z,100487.13
2017-07-08T10:54:54.842Z,100488.31
2017-07-08T10:57:22.278Z,100487.33
2017-07-08T10:59:49.694Z,100486.14
2017-07-08T11:02:17.110Z,100485.89
2017-07-08T11:04:44.538Z,100481.80
2017-07-08T11:07:11.950Z,100480.78
2017-07-08T11:09:39.382Z,100477.67
2017-07-08T11:12:06.794Z,100490.52
2017-07-08T11:14:34.215Z,100474.41
2017-07-08T11:17:01.677Z,100472.34
2017-07-08T11:19:29.093Z,100470.69
2017-07-08T11:21:56.525Z,100473.86
2017-07-08T11:24:23.937Z,100476.27
2017-07-08T11:26:51.353Z,100471.63
2017-07-08T11:29:18.777Z,100474.64
2017-07-08T11:31:46.186Z,100475.89
2017-07-08T11:34:13.631Z,100471.22
2017-07-08T11:36:41.052Z,100466.31
2017-07-08T11:39:08.466Z,100468.52
2017-07-08T11:41:36.837Z,100465.42
2017-07-08T11:44:04.256Z,100456.27
2017-07-08T11:46:31.714Z,100452.50
2017-07-08T11:48:59.134Z,100449.72
2017-07-08T11:51:26.561Z,100453.11
2017-07-08T11:53:53.993Z,100448.83
2017-07-08T11:56:21.404Z,100449.91
2017-07-08T11:58:48.840Z,100449.72
2017-07-08T12:01:16.251Z,100451.39
2017-07-08T12:03:43.672Z,100442.42
2017-07-08T12:06:11.239Z,100442.42
2017-07-08T12:08:39.534Z,100448.98
2017-07-08T12:11:06.969Z,100437.17
2017-07-08T12:13:34.383Z,100437.43
2017-07-08T12:16:01.825Z,100437.64
2017-07-08T12:18:29.275Z,100438.38
2017-07-08T12:20:56.690Z,100435.48
2017-07-08T12:23:24.123Z,100439.82
2017-07-08T12:25:51.549Z,100431.83
2017-07-08T12:28:18.962Z,100441.45
2017-07-08T12:30:46.377Z,100432.19
2017-07-08T12:33:13.789Z,100433.78
2017-07-08T12:35:41.226Z,100423.70
2017-07-08T12:38:08.654Z,100421.98
2017-07-08T12:40:36.065Z,100423.77
2017-07-08T12:43:03.489Z,100429.34
2017-07-08T12:45:34.818Z,100416.94
2017-07-08T12:48:02.272Z,100421.38
2017-07-08T12:50:29.691Z,100417.09
2017-07-08T12:52:57.158Z,100418.18
2017-07-08T12:55:24.890Z,100416.21
2017-07-08T12:57:53.294Z,100414.20
2017-07-08T13:00:20.738Z,100416.49
2017-07-08T13:02:49.190Z,100411.92
2017-07-08T13:05:17.058Z,100409.56
2017-07-08T13:07:45.315Z,100411.00
2017-07-08T13:10:12.730Z,100410.25
2017-07-08T13:12:40.185Z,100402.48
2017-07-08T13:15:08.540Z,100406.12
2017-07-08T13:17:35.950Z,100403.42
2017-07-08T13:20:03.390Z,100406.56
2017-07-08T13:22:31.090Z,100399.50
2017-07-08T13:24:59.110Z,100410.55
2017-07-08T13:27:26.530Z,100399.39
2017-07-08T13:29:53.942Z,100399.27
2017-07-08T13:32:21.361Z,100401.28
2017-07-08T13:34:48.783Z,100404.94
2017-07-08T13:37:16.211Z,100404.04
2017-07-08T13:39:43.630Z,100396.05
2017-07-08T13:42:11.049Z,100397.14
2017-07-08T13:44:38.464Z,100402.73
2017-07-08T13:47:05.874Z,100397.34
2017-07-08T13:49:33.301Z,100392.09
2017-07-08T13:52:00.769Z,100387.91
2017-07-08T13:54:28.171Z,100386.45
2017-07-08T13:56:55.602Z,100383.95
2017-07-08T13:59:23.015Z,100384.11
2017-07-08T14:01:50.455Z,100383.11
2017-07-08T14:04:17.869Z,100375.27
2017-07-08T14:06:45.337Z,100375.48
2017-07-08T14:09:19.282Z,100378.03
2017-07-08T14:11:46.707Z,100370.70
2017-07-08T14:14:14.143Z,100364.62
2017-07-08T14:16:41.569Z,100363.72
2017-07-08T14:19:08.986Z,100369.47
2017-07-08T14:21:36.415Z,100356.60
2017-07-08T14:24:03.821Z,100359.34
2017-07-08T14:26:31.351Z,100351.03
2017-07-08T14:28:58.765Z,100353.84
2017-07-08T14:31:26.178Z,100353.16
2017-07-08T14:34:03.892Z,100347.45
2017-07-08T14:36:31.306Z,100338.87
2017-07-08T14:38:58.741Z,100339.45
2017-07-08T14:41:26.161Z,100331.23
2017-07-08T14:43:53.593Z,100331.11
2017-07-08T14:46:21.011Z,100321.19
2017-07-08T14:48:48.422Z,100329.56
2017-07-08T14:51:15.855Z,100322.16
2017-07-08T14:53:43.267Z,100328.84
2017-07-08T14:56:10.685Z,100327.12
2017-07-08T14:58:38.107Z,100324.45
2017-07-08T15:01:05.519Z,100313.47
2017-07-08T15:03:32.967Z,100310.74
2017-07-08T15:06:00.382Z,100318.13
2017-07-08T15:08:27.807Z,100303.48
2017-07-08T15:10:55.227Z,100304.75
2017-07-08T15:13:22.639Z,100301.69
2017-07-08T15:15:50.075Z,100307.68
2017-07-08T15:18:17.486Z,100303.34
2017-07-08T15:20:44.898Z,100307.10
2017-07-08T15:23:12.309Z,100311.20
2017-07-08T15:25:39.718Z,100317.55
2017-07-08T15:28:07.147Z,100313.48
2017-07-08T15:30:34.569Z,100309.51
2017-07-08T15:33:01.973Z,100315.95
2017-07-08T15:35:29.386Z,100304.75
2017-07-08T15:37:56.835Z,100302.17
2017-07-08T15:40:24.250Z,100301.14
2017-07-08T15:42:51.665Z,100304.04
2017-07-08T15:45:19.079Z,100294.02
2017-07-08T15:47:46.486Z,100295.47
2017-07-08T15:50:13.919Z,100295.02
2017-07-08T15:52:41.334Z,100299.67
2017-07-08T15:55:08.749Z,100308.48
2017-07-08T15:57:36.167Z,100299.83
2017-07-08T16:00:03.579Z,100290.34
2017-07-08T16:02:31.002Z,100293.41
2017-07-08T16:04:58.416Z,100290.70
2017-07-08T16:07:25.830Z,100299.11
2017-07-08T16:09:53.258Z,100297.78
2017-07-08T16:12:20.673Z,100301.03
2017-07-08T16:14:48.131Z,100296.64
2017-07-08T16:17:15.534Z,100290.71
2017-07-08T16:19:46.531Z,100293.20
2017-07-08T16:22:13.949Z,100291.30
2017-07-08T16:24:41.369Z,100287.61
2017-07-08T16:27:08.800Z,100293.38
2017-07-08T16:29:36.219Z,100289.05
2017-07-08T16:32:04.338Z,100293.66
2017-07-08T16:34:31.767Z,100297.73
2017-07-08T16:36:59.185Z,100290.69
2017-07-08T16:39:26.646Z,100304.25
2017-07-08T16:41:54.054Z,100301.89
2017-07-08T16:44:21.478Z,100299.25
2017-07-08T16:46:48.902Z,100301.27
2017-07-08T16:49:16.318Z,100305.91
2017-07-08T16:51:43.762Z,100302.34
2017-07-08T16:54:11.181Z,100305.43
2017-07-08T16:56:38.598Z,100307.04
2017-07-08T16:59:08.393Z,100305.25
2017-07-08T17:01:36.785Z,100300.32
2017-07-08T17:04:04.206Z,100306.33
2017-07-08T17:06:31.666Z,100302.02
2017-07-08T17:08:59.074Z,100303.30
2017-07-08T17:11:26.497Z,100305.90
2017-07-08T17:13:53.921Z,100309.17
2017-07-08T17:16:21.359Z,100309.78
2017-07-08T17:18:48.771Z,100312.03
2017-07-08T17:21:16.184Z,100309.98
2017-07-08T17:23:43.615Z,100319.19
2017-07-08T17:26:11.029Z,100317.50
2017-07-08T17:28:38.466Z,100314.05
2017-07-08T17:31:05.883Z,100317.94
2017-07-08T17:33:33.300Z,100315.93
2017-07-08T17:36:00.721Z,100315.16
2017-07-08T17:38:28.138Z,100314.14
2017-07-08T17:40:55.575Z,100311.40
2017-07-08T17:43:22.981Z,100323.56
2017-07-08T17:45:50.399Z,100324.36
2017-07-08T17:48:17.822Z,100321.75
2017-07-08T17:50:45.249Z,100327.86
2017-07-08T17:53:12.707Z,100324.34
2017-07-08T17:55:40.118Z,100322.30
2017-07-08T17:58:07.598Z,100311.17
2017-07-08T18:00:35.021Z,100306.61
2017-07-08T18:03:02.431Z,100309.97
2017-07-08T18:05:29.870Z,100313.41
2017-07-08T18:07:57.290Z,100312.69
2017-07-08T18:10:24.709Z,100311.05
2017-07-08T18:12:52.134Z,100317.69
2017-07-08T18:15:19.543Z,100321.14
2017-07-08T18:17:46.983Z,100314.05
2017-07-08T18:20:14.398Z,100317.94
2017-07-08T18:22:41.879Z,100329.86
2017-07-08T18:25:09.312Z,100318.54
2017-07-08T18:27:36.722Z,100319.58
2017-07-08T18:30:04.166Z,100313.62
2017-07-08T18:32:31.582Z,100321.58
2017-07-08T18:34:58.995Z,100320.53
2017-07-08T18:37:26.412Z,100323.35
2017-07-08T18:39:53.838Z,100325.10
2017-07-08T18:42:21.267Z,100320.02
2017-07-08T18:44:48.727Z,100323.67
2017-07-08T18:47:16.147Z,100319.89
2017-07-08T18:49:43.602Z,100321.86
2017-07-08T18:52:11.034Z,100325.64
2017-07-08T18:54:39.754Z,100323.53
2017-07-08T18:57:07.162Z,100322.89
2017-07-08T18:59:34.769Z,100325.59
2017-07-08T19:02:02.227Z,100318.87
2017-07-08T19:04:29.898Z,100324.09
2017-07-08T19:06:57.330Z,100325.42
2017-07-08T19:09:24.742Z,100318.97
2017-07-08T19:11:52.160Z,100330.65
2017-07-08T19:14:19.585Z,100322.17
2017-07-08T19:16:46.999Z,100325.64
2017-07-08T19:19:14.506Z,100328.98
2017-07-08T19:21:41.931Z,100325.58
2017-07-08T19:24:09.348Z,100328.91
2017-07-08T19:26:36.763Z,100324.98
2017-07-08T19:29:04.211Z,100324.52
2017-07-08T19:31:31.694Z,100329.91
2017-07-08T19:33:59.101Z,100332.57
2017-07-08T19:36:26.550Z,100332.90
2017-07-08T19:38:53.972Z,100339.77
2017-07-08T19:41:21.398Z,100330.88
2017-07-08T19:43:48.842Z,100328.48
2017-07-08T19:46:16.262Z,100334.39
2017-07-08T19:48:43.683Z,100335.76
2017-07-08T19:51:11.106Z,100332.34
2017-07-08T19:53:38.524Z,100335.20
2017-07-08T19:56:05.958Z,100336.23
2017-07-08T19:58:33.382Z,100334.37
2017-07-08T20:01:00.803Z,100335.27
2017-07-08T20:03:35.373Z,100351.45
2017-07-08T20:06:02.807Z,100343.62
2017-07-08T20:08:30.294Z,100350.98
2017-07-08T20:10:57.724Z,100355.64
2017-07-08T20:13:25.152Z,100350.79
2017-07-08T20:15:52.584Z,100341.09
2017-07-08T20:18:19.994Z,100340.23
2017-07-08T20:20:47.434Z,100340.91
2017-07-08T20:23:14.854Z,100346.14
2017-07-08T20:25:42.269Z,100348.23
2017-07-08T20:28:09.694Z,100345.54
2017-07-08T20:30:37.105Z,100348.53
2017-07-08T20:33:04.702Z,100348.95
2017-07-08T20:35:32.138Z,100354.24
2017-07-08T20:37:59.559Z,100356.59
2017-07-08T20:40:26.993Z,100363.88
2017-07-08T20:42:54.410Z,100363.30
2017-07-08T20:45:21.844Z,100366.50
2017-07-08T20:47:49.266Z,100363.42
2017-07-08T20:50:16.675Z,100369.50
2017-07-08T20:52:44.103Z,100370.50
2017-07-08T20:55:11.557Z,100363.52
2017-07-08T20:57:39.008Z,100367.32
2017-07-08T21:00:06.424Z,100370.05
2017-07-08T21:02:33.849Z,100365.01
2017-07-08T21:05:01.287Z,100360.38
2017-07-08T21:07:28.742Z,100370.88
2017-07-08T21:09:56.194Z,100365.67
2017-07-08T21:12:23.647Z,100373.41
2017-07-08T21:14:51.073Z,100376.91
2017-07-08T21:17:18.521Z,100382.11
2017-07-08T21:19:45.943Z,100379.98
2017-07-08T21:22:13.399Z,100384.34
2017-07-08T21:24:40.807Z,100378.89
2017-07-08T21:27:08.259Z,100384.02
2017-07-08T21:29:35.703Z,100386.48
2017-07-08T21:32:03.118Z,100383.98
2017-07-08T21:34:30.531Z,100384.52
2017-07-08T21:36:57.947Z,100389.08
2017-07-08T21:39:25.365Z,100390.88
2017-07-08T21:41:52.798Z,100387.42
2017-07-08T21:44:20.241Z,100381.28
2017-07-08T21:46:47.662Z,100377.53
2017-07-08T21:49:15.101Z,100374.94
2017-07-08T21:51:42.535Z,100371.98
2017-07-08T21:54:09.983Z,100367.27
2017-07-08T21:56:37.418Z,100368.80
2017-07-08T21:59:04.834Z,100372.51
2017-07-08T22:01:32.310Z,100372.34
2017-07-08T22:03:59.732Z,100372.33
2017-07-08T22:06:27.166Z,100372.19
2017-07-08T22:08:54.601Z,100368.32
2017-07-08T22:11:22.009Z,100371.40
2017-07-08T22:13:49.446Z,100371.47
2017-07-08T22:16:16.903Z,100381.75
2017-07-08T22:18:44.326Z,100377.06
2017-07-08T22:21:11.746Z,100374.44
2017-07-08T22:23:39.166Z,100377.23
2017-07-08T22:26:06.618Z,100375.33
2017-07-08T22:28:34.030Z,100374.53
2017-07-08T22:31:01.470Z,100374.86
2017-07-08T22:33:28.903Z,100375.38
2017-07-08T22:35:56.325Z,100380.33
2017-07-08T22:38:23.766Z,100376.36
2017-07-08T22:40:51.178Z,100373.91
2017-07-08T22:43:18.615Z,100367.02
2017-07-08T22:45:46.024Z,100368.06
2017-07-08T22:48:13.455Z,100357.11
2017-07-08T22:50:40.918Z,100365.83
2017-07-08T22:53:08.355Z,100368.02
2017-07-08T22:55:35.790Z,100375.22
2017-07-08T22:58:03.213Z,100366.02
2017-07-08T23:00:30.689Z,100374.70
2017-07-08T23:02:58.134Z,100380.13
2017-07-08T23:05:25.551Z,100380.95
2017-07-08T23:07:53.003Z,100386.27
2017-07-08T23:10:20.426Z,100383.06
2017-07-08T23:12:47.869Z,100379.33
2017-07-08T23:15:15.306Z,100376.17
2017-07-08T23:17:42.741Z,100385.40
2017-07-08T23:20:10.161Z,100390.83
2017-07-08T23:22:37.591Z,100384.19
2017-07-08T23:25:05.010Z,100384.91
2017-07-08T23:27:32.478Z,100382.72
2017-07-08T23:29:59.915Z,100382.07
2017-07-08T23:32:27.381Z,100386.97
2017-07-08T23:34:54.809Z,100375.84
2017-07-08T23:37:22.224Z,100376.81
2017-07-08T23:39:49.657Z,100376.58
2017-07-08T23:42:23.695Z,100375.22
2017-07-08T23:44:51.186Z,100368.45
2017-07-08T23:47:18.595Z,100378.77
2017-07-08T23:49:46.014Z,100374.98
2017-07-08T23:52:13.455Z,100367.66
2017-07-08T23:54:40.880Z,100364.67
2017-07-08T23:57:08.338Z,100363.34
2017-07-08T23:59:35.766Z,100367.39
